Time;durP1;ratioP1;P1;durP2;ratioP2;P2;SDS_P1;SDS_P2;PMS_P1;PMS_P2;Temp;Humidity;BMP_temperature;BMP_pressure;BME280_temperature;BME280_humidity;BME280_pressure;Samples;Min_cycle;Max_cycle;Signal;HPM_P1;HPM_P2
2022/11/18 00:01:31;;;;;;;20.40;18.25;;;6.70;99.90;;;;;;5145273;27;20493;-75
2022/11/18 00:03:57;;;;;;;24.15;20.30;;;6.70;99.90;;;;;;5109442;27;20091;-73
2022/11/18 00:06:25;;;;;;;22.00;19.80;;;6.70;99.90;;;;;;5143351;27;20043;-74
2022/11/18 00:08:54;;;;;;;22.08;19.80;;;6.80;99.90;;;;;;5146730;27;20485;-74
2022/11/18 00:14:19;;;;;;;24.45;19.95;;;6.80;99.90;;;;;;5132010;27;20047;-74
2022/11/18 00:16:50;;;;;;;21.27;18.80;;;6.80;99.90;;;;;;5128656;27;20554;-76
2022/11/18 00:19:18;;;;;;;22.48;20.10;;;6.80;99.90;;;;;;5150543;27;20041;-75
2022/11/18 00:21:43;;;;;;;26.88;20.88;;;6.80;99.90;;;;;;5127905;27;20061;-75
2022/11/18 00:24:09;;;;;;;22.15;19.70;;;6.80;99.90;;;;;;5112881;27;20466;-74
2022/11/18 00:26:35;;;;;;;23.17;20.10;;;7.30;99.90;;;;;;5133066;27;20046;-74
2022/11/18 00:29:01;;;;;;;26.20;21.00;;;6.80;99.90;;;;;;5129200;27;20129;-75
2022/11/18 00:31:27;;;;;;;25.38;20.08;;;7.70;99.90;;;;;;5149085;27;20038;-74
2022/11/18 00:33:54;;;;;;;23.17;20.02;;;6.80;99.90;;;;;;5104868;27;20122;-75
2022/11/18 00:36:19;;;;;;;27.10;21.30;;;6.80;99.90;;;;;;5149849;27;20051;-75
2022/11/18 00:38:45;;;;;;;21.98;19.45;;;6.80;99.90;;;;;;5144926;27;20039;-74
2022/11/18 00:41:13;;;;;;;23.77;20.23;;;6.80;99.90;;;;;;5141370;27;20051;-74
2022/11/18 00:43:39;;;;;;;24.92;20.45;;;8.10;99.90;;;;;;5131909;27;20035;-71
2022/11/18 00:46:08;;;;;;;27.50;20.55;;;6.70;99.90;;;;;;5145412;27;20049;-72
2022/11/18 00:48:34;;;;;;;23.63;19.95;;;8.20;99.90;;;;;;5137310;27;20154;-73
2022/11/18 00:51:07;;;;;;;21.70;19.25;;;6.80;99.90;;;;;;5128848;27;20050;-74
2022/11/18 00:53:33;;;;;;;28.33;19.60;;;6.80;99.90;;;;;;5148690;27;20524;-74
2022/11/18 00:55:59;;;;;;;24.50;19.33;;;6.70;99.90;;;;;;5142847;27;20038;-73
2022/11/18 00:58:24;;;;;;;24.52;20.17;;;6.80;99.90;;;;;;5108631;27;20444;-71
2022/11/18 01:00:51;;;;;;;29.65;21.30;;;8.00;99.90;;;;;;5131479;27;20130;-75
2022/11/18 01:03:18;;;;;;;25.58;21.05;;;6.80;99.90;;;;;;5129641;27;20031;-72
2022/11/18 01:05:44;;;;;;;27.00;21.13;;;6.80;99.90;;;;;;5109277;27;20574;-72
2022/11/18 01:08:11;;;;;;;24.15;20.92;;;7.60;99.90;;;;;;5124427;27;20027;-75
2022/11/18 01:10:38;;;;;;;26.23;20.80;;;6.70;99.90;;;;;;5130928;27;20043;-74
2022/11/18 01:13:21;;;;;;;28.85;20.88;;;7.80;99.90;;;;;;5145420;27;20142;-73
2022/11/18 01:15:55;;;;;;;23.58;20.05;;;6.70;99.90;;;;;;5134091;27;20121;-75
2022/11/18 01:18:30;;;;;;;26.27;20.90;;;6.70;99.90;;;;;;5114463;27;20057;-74
2022/11/18 01:21:03;;;;;;;28.50;21.45;;;6.80;99.90;;;;;;5130105;27;20031;-74
2022/11/18 01:23:29;;;;;;;27.15;21.65;;;6.70;99.90;;;;;;5148064;27;20099;-73
2022/11/18 01:25:55;;;;;;;27.88;21.50;;;6.70;99.90;;;;;;5144533;27;20038;-74
2022/11/18 01:28:20;;;;;;;30.70;21.48;;;6.70;99.90;;;;;;5130296;27;20135;-75
2022/11/18 01:30:46;;;;;;;31.08;22.48;;;6.80;99.90;;;;;;5114386;27;20038;-73
2022/11/18 01:33:12;;;;;;;31.90;22.08;;;6.80;99.90;;;;;;5113074;27;20043;-75
2022/11/18 01:35:40;;;;;;;28.63;22.38;;;6.80;99.90;;;;;;5140694;27;20027;-75
2022/11/18 01:38:07;;;;;;;32.35;22.77;;;6.80;99.90;;;;;;5139045;27;20137;-74
2022/11/18 01:40:33;;;;;;;31.60;22.13;;;6.30;99.90;;;;;;5114612;27;20090;-74
2022/11/18 01:42:59;;;;;;;28.90;21.50;;;6.80;99.90;;;;;;5129200;27;20421;-75
2022/11/18 01:45:37;;;;;;;29.45;22.20;;;6.80;99.90;;;;;;5148288;27;20451;-74
2022/11/18 01:48:06;;;;;;;29.83;21.65;;;6.80;99.90;;;;;;5148170;27;20027;-75
2022/11/18 01:50:35;;;;;;;25.02;20.75;;;6.80;99.90;;;;;;5132449;27;20049;-73
2022/11/18 01:53:10;;;;;;;34.47;22.58;;;6.50;99.90;;;;;;5129772;27;20486;-75
2022/11/18 01:55:40;;;;;;;32.17;21.00;;;6.60;99.90;;;;;;5139865;27;20552;-73
2022/11/18 01:58:11;;;;;;;27.65;21.25;;;6.70;99.90;;;;;;5123054;27;20424;-74
2022/11/18 02:00:38;;;;;;;29.85;21.08;;;6.70;99.90;;;;;;5124780;27;20039;-75
2022/11/18 02:03:05;;;;;;;32.90;23.08;;;6.80;99.90;;;;;;5129294;27;20027;-73
2022/11/18 02:05:32;;;;;;;28.63;21.15;;;6.70;99.90;;;;;;5143315;27;20027;-75
2022/11/18 02:08:00;;;;;;;27.75;22.23;;;6.80;99.90;;;;;;5128473;27;20081;-74
2022/11/18 02:10:25;;;;;;;35.50;23.30;;;6.70;99.90;;;;;;5107762;27;20049;-74
2022/11/18 02:12:53;;;;;;;30.02;22.35;;;8.10;99.90;;;;;;5143337;27;20046;-75
2022/11/18 02:15:45;;;;;;;31.85;23.20;;;8.30;99.90;;;;;;5124094;27;20547;-73
2022/11/18 02:18:59;;;;;;;34.72;23.60;;;6.70;99.90;;;;;;5117854;27;20038;-74
2022/11/18 02:21:53;;;;;;;33.40;23.52;;;6.80;99.90;;;;;;5095948;27;20228;-74
2022/11/18 02:24:42;;;;;;;33.20;22.88;;;6.70;99.90;;;;;;5118809;27;20035;-73
2022/11/18 02:27:28;;;;;;;36.03;24.20;;;6.70;99.90;;;;;;5141341;27;20043;-74
2022/11/18 02:30:09;;;;;;;31.33;23.63;;;6.70;99.90;;;;;;5128621;27;20046;-74
2022/11/18 02:32:42;;;;;;;33.47;23.25;;;6.70;99.90;;;;;;5129861;27;20134;-74
2022/11/18 02:35:37;;;;;;;38.83;24.70;;;6.70;99.90;;;;;;5101314;27;20043;-73
2022/11/18 02:38:13;;;;;;;33.90;24.27;;;6.70;99.90;;;;;;5112271;27;20058;-73
2022/11/18 02:40:44;;;;;;;29.67;22.38;;;6.70;99.90;;;;;;5109466;27;20094;-74
2022/11/18 02:43:23;;;;;;;31.83;22.52;;;6.70;99.90;;;;;;5138954;27;20439;-73
2022/11/18 02:45:54;;;;;;;33.45;22.40;;;6.70;99.90;;;;;;5110431;27;20532;-74
2022/11/18 02:48:23;;;;;;;34.53;22.30;;;6.70;99.90;;;;;;5108531;27;20041;-74
2022/11/18 02:50:50;;;;;;;34.58;22.55;;;6.50;99.90;;;;;;5131361;27;20034;-74
2022/11/18 02:53:18;;;;;;;33.38;22.40;;;7.70;99.90;;;;;;5109927;27;20046;-74
2022/11/18 02:55:45;;;;;;;36.70;23.25;;;8.10;99.90;;;;;;5130220;27;20035;-75
2022/11/18 02:58:14;;;;;;;28.20;21.73;;;6.70;99.90;;;;;;5137688;27;20039;-75
2022/11/18 03:00:39;;;;;;;31.20;22.75;;;6.70;99.90;;;;;;5128123;27;20042;-75
2022/11/18 03:03:25;;;;;;;32.13;22.08;;;6.60;99.90;;;;;;5137049;27;20041;-74
2022/11/18 03:06:01;;;;;;;33.83;23.88;;;6.60;99.90;;;;;;5132192;27;20047;-73
2022/11/18 03:08:35;;;;;;;35.13;23.92;;;6.60;99.90;;;;;;5127715;27;20042;-75
2022/11/18 03:11:22;;;;;;;41.72;23.05;;;6.60;99.90;;;;;;5129940;27;20589;-75
2022/11/18 03:14:10;;;;;;;33.63;22.27;;;6.80;99.90;;;;;;5145457;27;20031;-75
2022/11/18 03:16:43;;;;;;;30.75;21.70;;;6.60;99.90;;;;;;5126498;27;20081;-74
2022/11/18 03:19:19;;;;;;;34.95;23.13;;;6.60;99.90;;;;;;5119834;27;20039;-75
2022/11/18 03:21:57;;;;;;;33.05;22.00;;;6.60;99.90;;;;;;5147372;27;20034;-75
2022/11/18 03:24:31;;;;;;;34.75;21.75;;;6.60;99.90;;;;;;5127669;27;20137;-75
2022/11/18 03:27:12;;;;;;;34.10;21.63;;;6.50;99.90;;;;;;5123276;27;20075;-76
2022/11/18 03:29:43;;;;;;;31.35;19.70;;;6.50;99.90;;;;;;5126247;27;20509;-74
2022/11/18 03:32:17;;;;;;;31.65;21.25;;;6.90;99.90;;;;;;5128501;27;20051;-75
2022/11/18 03:34:48;;;;;;;29.58;19.08;;;6.60;99.90;;;;;;5109016;27;20050;-75
2022/11/18 03:37:16;;;;;;;31.23;20.02;;;6.50;99.90;;;;;;5125530;27;20536;-75
2022/11/18 03:39:48;;;;;;;30.98;19.73;;;6.60;99.90;;;;;;5129071;27;20046;-75
2022/11/18 03:42:20;;;;;;;27.05;19.08;;;8.20;99.90;;;;;;5123174;27;20104;-74
2022/11/18 03:44:51;;;;;;;31.70;19.88;;;6.40;99.90;;;;;;5130619;27;20034;-74
2022/11/18 03:47:26;;;;;;;25.58;19.38;;;7.70;99.90;;;;;;5116712;27;20079;-75
2022/11/18 03:49:59;;;;;;;26.88;19.58;;;6.50;99.90;;;;;;5130598;27;20034;-73
2022/11/18 03:52:29;;;;;;;27.08;20.13;;;6.50;99.90;;;;;;5144756;27;20083;-75
2022/11/18 03:54:59;;;;;;;28.10;19.42;;;6.50;99.90;;;;;;5113115;27;20047;-73
2022/11/18 03:57:33;;;;;;;28.02;19.70;;;6.50;99.90;;;;;;5124696;27;20034;-73
2022/11/18 04:00:05;;;;;;;;;;;8.20;99.90;;;;;;5109531;27;20573;-74
2022/11/18 04:02:31;;;;;;;30.40;18.88;;;6.50;99.90;;;;;;5143316;27;19955;-74
2022/11/18 04:04:59;;;;;;;31.08;19.02;;;6.50;99.90;;;;;;5144090;27;20035;-74
2022/11/18 04:07:42;;;;;;;29.83;19.45;;;6.50;99.90;;;;;;5147492;27;20042;-75
2022/11/18 04:10:20;;;;;;;27.95;19.08;;;6.40;99.90;;;;;;5141659;27;20031;-74
2022/11/18 04:13:03;;;;;;;27.65;18.85;;;6.40;99.90;;;;;;5112693;27;20084;-74
2022/11/18 04:15:31;;;;;;;28.40;19.13;;;6.40;99.90;;;;;;5146255;27;20368;-75
2022/11/18 04:17:57;;;;;;;30.85;18.17;;;6.40;99.90;;;;;;5129932;27;20066;-74
2022/11/18 04:20:24;;;;;;;27.50;18.55;;;6.40;99.90;;;;;;5125563;27;20634;-74
2022/11/18 04:22:50;;;;;;;25.65;19.15;;;6.40;99.90;;;;;;5146703;27;20386;-73
2022/11/18 04:25:15;;;;;;;26.63;18.40;;;6.40;99.90;;;;;;5147803;27;20707;-75
2022/11/18 04:27:41;;;;;;;25.52;17.90;;;6.30;99.90;;;;;;5110008;27;20042;-75
2022/11/18 04:30:08;;;;;;;28.77;18.35;;;6.40;99.90;;;;;;5112180;27;20073;-75
2022/11/18 04:32:33;;;;;;;27.85;19.65;;;6.40;99.90;;;;;;5127423;27;20052;-75
2022/11/18 04:34:59;;;;;;;26.40;18.63;;;6.40;99.90;;;;;;5127404;27;20069;-75
2022/11/18 04:37:25;;;;;;;24.27;18.45;;;6.40;99.90;;;;;;5145900;27;20090;-74
2022/11/18 04:39:51;;;;;;;28.08;18.80;;;6.30;99.90;;;;;;5125096;27;20376;-75
2022/11/18 04:42:17;;;;;;;21.92;17.77;;;6.40;99.90;;;;;;5130303;27;20039;-75
2022/11/18 04:44:42;;;;;;;27.25;18.63;;;6.40;99.90;;;;;;5127020;27;20073;-75
2022/11/18 04:47:08;;;;;;;29.90;19.38;;;7.30;99.90;;;;;;5129467;27;20070;-74
2022/11/18 04:49:34;;;;;;;23.30;18.05;;;6.30;99.90;;;;;;5115541;27;20047;-73
2022/11/18 04:52:01;;;;;;;25.13;17.80;;;6.40;99.90;;;;;;5146965;27;20057;-74
2022/11/18 04:54:27;;;;;;;26.98;18.50;;;6.30;99.90;;;;;;5109597;27;20072;-73
2022/11/18 04:56:54;;;;;;;23.00;17.55;;;6.30;99.90;;;;;;5131826;27;20078;-74
2022/11/18 04:59:22;;;;;;;24.67;18.40;;;6.20;99.90;;;;;;5142409;27;20066;-75
2022/11/18 05:01:48;;;;;;;30.92;18.35;;;6.30;99.90;;;;;;5131463;27;20042;-75
2022/11/18 05:04:16;;;;;;;23.92;17.27;;;6.50;99.90;;;;;;5131104;27;20027;-72
2022/11/18 05:06:42;;;;;;;25.02;17.52;;;6.30;99.90;;;;;;5108359;27;20091;-74
2022/11/18 05:09:08;;;;;;;27.33;16.90;;;6.30;99.90;;;;;;5111500;27;20046;-74
2022/11/18 05:14:18;;;;;;;22.67;16.55;;;6.30;99.90;;;;;;5124915;27;20046;-74
2022/11/18 05:16:44;;;;;;;22.83;18.05;;;6.30;99.90;;;;;;5110492;27;20034;-74
2022/11/18 05:19:10;;;;;;;20.83;17.52;;;6.20;99.90;;;;;;5112978;27;20039;-74
2022/11/18 05:21:36;;;;;;;23.73;16.58;;;6.20;99.90;;;;;;5114701;27;20039;-73
2022/11/18 05:24:03;;;;;;;23.67;17.35;;;6.20;99.90;;;;;;5130673;27;20042;-74
2022/11/18 05:26:29;;;;;;;19.60;16.17;;;6.20;99.90;;;;;;5144263;27;20035;-74
2022/11/18 05:28:55;;;;;;;22.73;16.77;;;6.50;99.90;;;;;;5131528;27;20497;-75
2022/11/18 05:31:21;;;;;;;27.25;17.65;;;6.20;99.90;;;;;;5149721;27;20145;-74
2022/11/18 05:33:47;;;;;;;28.48;16.95;;;6.20;99.90;;;;;;5149186;27;20474;-74
2022/11/18 05:36:15;;;;;;;24.08;17.15;;;6.40;99.90;;;;;;5106350;27;20122;-74
2022/11/18 05:38:41;;;;;;;20.08;16.90;;;6.20;99.90;;;;;;5147954;27;20078;-74
2022/11/18 05:41:08;;;;;;;24.13;16.75;;;6.20;99.90;;;;;;5104350;27;20129;-75
2022/11/18 05:43:35;;;;;;;24.00;16.75;;;6.20;99.90;;;;;;5150161;27;20043;-73
2022/11/18 05:46:01;;;;;;;23.45;16.98;;;6.20;99.90;;;;;;5102567;27;20047;-74
2022/11/18 05:48:27;;;;;;;23.10;16.67;;;6.10;99.90;;;;;;5143588;27;20034;-75
2022/11/18 05:50:53;;;;;;;25.30;17.42;;;7.70;99.90;;;;;;5141954;27;20029;-74
2022/11/18 05:53:22;;;;;;;29.45;17.80;;;7.10;99.90;;;;;;5144865;27;20694;-75
2022/11/18 05:56:13;;;;;;;36.75;19.80;;;6.10;99.90;;;;;;5127092;27;20034;-75
2022/11/18 05:58:39;;;;;;;28.17;17.17;;;6.20;99.90;;;;;;5120451;27;20158;-75
2022/11/18 06:01:06;;;;;;;29.10;18.52;;;7.80;99.90;;;;;;5108574;27;20689;-74
2022/11/18 06:03:35;;;;;;;28.98;18.95;;;6.10;99.90;;;;;;5144856;27;20057;-74
2022/11/18 06:06:04;;;;;;;29.77;17.08;;;6.10;99.90;;;;;;5139026;27;20120;-75
2022/11/18 06:08:33;;;;;;;26.85;17.45;;;6.20;99.90;;;;;;5123638;27;20043;-74
2022/11/18 06:10:59;;;;;;;29.33;17.70;;;6.10;99.90;;;;;;5118885;27;20054;-75
2022/11/18 06:13:30;;;;;;;30.35;17.75;;;7.10;99.90;;;;;;5125662;27;20035;-75
2022/11/18 06:15:56;;;;;;;25.08;16.95;;;6.10;99.90;;;;;;5108651;27;20042;-74
2022/11/18 06:18:31;;;;;;;31.85;18.73;;;6.10;99.90;;;;;;5127625;27;20035;-73
2022/11/18 06:21:01;;;;;;;27.33;18.38;;;6.10;99.90;;;;;;5113316;27;20038;-74
2022/11/18 06:23:29;;;;;;;31.75;19.10;;;6.10;99.90;;;;;;5114020;27;20043;-74
2022/11/18 06:25:55;;;;;;;32.45;18.20;;;6.00;99.90;;;;;;5141720;27;20386;-74
2022/11/18 06:28:22;;;;;;;26.52;19.05;;;6.00;99.90;;;;;;5123461;27;20046;-73
2022/11/18 06:30:47;;;;;;;27.80;18.35;;;6.00;99.90;;;;;;5130384;27;20042;-74
2022/11/18 06:33:13;;;;;;;34.72;19.85;;;6.00;99.90;;;;;;5108120;27;20035;-74
2022/11/18 06:35:40;;;;;;;30.98;18.98;;;7.30;99.90;;;;;;5124512;27;20397;-74
2022/11/18 06:38:06;;;;;;;30.50;16.83;;;6.00;99.90;;;;;;4417846;27;10021545;-75
2022/11/18 06:40:32;;;;;;;33.40;20.13;;;6.00;99.90;;;;;;5104378;27;20049;-75
2022/11/18 06:46:54;;;;;;;38.17;19.13;;;6.00;99.90;;;;;;5141156;27;20073;-75
2022/11/18 06:48:27;;;;;;;30.25;18.67;;;6.00;99.90;;;;;;5120700;27;20047;-73
2022/11/18 06:50:52;;;;;;;34.33;19.48;;;6.00;99.90;;;;;;5101851;27;20031;-74
2022/11/18 06:53:18;;;;;;;32.47;20.98;;;6.00;99.90;;;;;;5125616;27;20043;-74
2022/11/18 06:55:44;;;;;;;33.05;19.63;;;6.00;99.90;;;;;;5122573;27;20497;-75
2022/11/18 06:58:09;;;;;;;34.42;20.13;;;7.80;99.90;;;;;;5119932;27;20044;-74
2022/11/18 07:00:35;;;;;;;38.55;20.95;;;6.00;99.90;;;;;;5127774;27;20042;-74
2022/11/18 07:03:01;;;;;;;35.90;20.85;;;7.80;99.90;;;;;;5138011;27;20122;-74
2022/11/18 07:05:27;;;;;;;30.77;18.83;;;6.00;99.90;;;;;;5103885;27;20031;-73
2022/11/18 07:07:53;;;;;;;35.83;20.75;;;6.00;99.90;;;;;;5137982;27;20046;-73
2022/11/18 07:10:18;;;;;;;33.92;20.42;;;6.00;99.90;;;;;;5101717;27;20130;-73
2022/11/18 07:12:44;;;;;;;29.08;18.80;;;5.50;99.90;;;;;;5090829;28;20530;-75
2022/11/18 07:15:10;;;;;;;34.03;20.00;;;5.90;99.90;;;;;;5100235;28;20047;-75
2022/11/18 07:17:35;;;;;;;34.72;19.88;;;6.30;99.90;;;;;;5121904;27;20054;-74
2022/11/18 07:20:01;;;;;;;31.98;18.75;;;5.90;99.90;;;;;;5105394;28;20478;-75
2022/11/18 07:22:27;;;;;;;29.65;19.38;;;7.50;99.90;;;;;;5140630;27;20707;-74
2022/11/18 07:24:53;;;;;;;37.50;19.90;;;7.00;99.90;;;;;;5103692;27;20047;-73
2022/11/18 07:27:19;;;;;;;29.08;19.13;;;7.10;99.90;;;;;;5117644;27;20049;-73
2022/11/18 07:29:44;;;;;;;30.73;18.35;;;5.90;99.90;;;;;;5103416;27;20042;-74
2022/11/18 07:32:10;;;;;;;33.25;18.85;;;5.90;99.90;;;;;;5145401;27;20039;-75
2022/11/18 07:34:35;;;;;;;31.98;18.70;;;5.90;99.90;;;;;;5143345;27;20039;-73
2022/11/18 07:37:01;;;;;;;34.38;19.45;;;5.90;99.90;;;;;;5138662;27;20577;-72
2022/11/18 07:39:26;;;;;;;30.73;19.20;;;5.90;99.90;;;;;;5141979;27;20039;-72
2022/11/18 07:41:52;;;;;;;32.60;18.80;;;6.30;99.90;;;;;;5121860;27;20125;-74
2022/11/18 07:44:18;;;;;;;27.70;18.13;;;6.10;99.90;;;;;;5126316;27;20034;-75
2022/11/18 07:46:43;;;;;;;31.02;17.80;;;5.90;99.90;;;;;;5109646;27;20416;-73
2022/11/18 07:49:11;;;;;;;30.13;17.25;;;5.90;99.90;;;;;;5143961;27;20039;-73
2022/11/18 07:51:38;;;;;;;25.15;17.70;;;5.80;99.90;;;;;;5130614;27;20099;-73
2022/11/18 07:54:09;;;;;;;28.05;18.13;;;7.20;99.90;;;;;;5126934;27;20038;-73
2022/11/18 07:56:35;;;;;;;35.17;18.80;;;5.80;99.90;;;;;;5133177;27;20039;-72
2022/11/18 07:59:01;;;;;;;27.60;17.17;;;5.80;99.90;;;;;;5109193;27;20031;-74
2022/11/18 08:01:29;;;;;;;27.67;16.63;;;6.30;99.90;;;;;;5124534;27;20649;-74
2022/11/18 08:03:56;;;;;;;25.10;16.52;;;5.80;99.90;;;;;;5146987;27;20123;-73
2022/11/18 08:06:22;;;;;;;27.83;17.85;;;5.80;99.90;;;;;;5129140;27;20042;-74
2022/11/18 08:08:48;;;;;;;24.77;15.75;;;5.80;99.90;;;;;;5147476;27;20039;-75
2022/11/18 08:11:17;;;;;;;24.05;16.25;;;5.80;99.90;;;;;;5123966;27;20716;-74
2022/11/18 08:13:42;;;;;;;30.00;16.27;;;5.80;99.90;;;;;;5137760;27;20066;-74
2022/11/18 08:16:23;;;;;;;27.55;16.92;;;5.80;99.90;;;;;;5109116;27;20529;-74
2022/11/18 08:18:49;;;;;;;27.08;16.98;;;5.80;99.90;;;;;;5119852;27;20062;-73
2022/11/18 08:21:19;;;;;;;26.42;16.88;;;5.80;99.90;;;;;;5132247;27;20065;-74
2022/11/18 08:23:52;;;;;;;26.00;15.52;;;5.80;99.90;;;;;;5125556;27;20079;-73
2022/11/18 08:26:18;;;;;;;27.83;15.75;;;6.60;99.90;;;;;;5113728;27;20131;-72
2022/11/18 08:28:45;;;;;;;28.85;16.65;;;7.20;99.90;;;;;;5123240;27;20394;-74
2022/11/18 08:31:23;;;;;;;30.42;16.75;;;5.80;99.90;;;;;;5122135;27;20046;-73
2022/11/18 08:33:56;;;;;;;25.58;15.15;;;5.80;99.90;;;;;;5142017;27;20447;-72
2022/11/18 08:36:25;;;;;;;25.70;15.18;;;5.80;99.90;;;;;;5125540;27;20042;-72
2022/11/18 08:38:51;;;;;;;23.27;15.27;;;5.80;99.90;;;;;;5101751;27;20118;-74
2022/11/18 08:41:22;;;;;;;23.95;15.63;;;5.80;99.90;;;;;;5106180;27;20138;-74
2022/11/18 08:43:47;;;;;;;25.23;13.90;;;5.80;99.90;;;;;;5127990;27;20031;-74
2022/11/18 08:46:13;;;;;;;23.13;14.35;;;6.20;99.90;;;;;;5144113;27;20091;-72
2022/11/18 08:48:38;;;;;;;22.38;13.75;;;5.80;99.90;;;;;;5127132;27;20450;-72
2022/11/18 08:51:04;;;;;;;22.52;14.52;;;7.40;99.90;;;;;;5144610;27;20414;-73
2022/11/18 08:53:31;;;;;;;26.30;14.43;;;5.90;99.90;;;;;;5123969;27;20494;-73
2022/11/18 08:55:58;;;;;;;20.58;12.85;;;7.20;99.90;;;;;;5107102;27;20045;-73
2022/11/18 08:58:25;;;;;;;17.88;12.90;;;6.10;99.90;;;;;;5144546;27;20039;-73
2022/11/18 09:00:51;;;;;;;20.05;13.13;;;6.20;99.90;;;;;;5114773;27;20066;-75
2022/11/18 09:03:17;;;;;;;19.83;12.40;;;6.50;99.90;;;;;;5118226;27;20482;-74
2022/11/18 09:05:42;;;;;;;20.67;12.25;;;5.90;99.90;;;;;;5143997;27;20382;-74
2022/11/18 09:08:08;;;;;;;20.48;12.98;;;5.20;99.90;;;;;;5125765;27;20066;-74
2022/11/18 09:10:35;;;;;;;19.17;12.73;;;5.80;99.90;;;;;;5106884;27;20095;-74
2022/11/18 09:13:01;;;;;;;20.17;13.07;;;5.80;99.90;;;;;;5114462;27;20035;-73
2022/11/18 09:15:28;;;;;;;17.67;11.75;;;7.00;99.90;;;;;;5113367;27;20398;-74
2022/11/18 09:17:55;;;;;;;18.30;11.77;;;5.80;99.90;;;;;;5153434;27;20113;-74
2022/11/18 09:20:21;;;;;;;18.67;11.57;;;5.80;99.90;;;;;;5151828;27;20114;-73
2022/11/18 09:22:46;;;;;;;17.25;12.88;;;7.40;99.90;;;;;;5154024;27;20174;-74
2022/11/18 09:25:12;;;;;;;17.48;13.27;;;5.80;99.90;;;;;;5132010;27;20474;-75
2022/11/18 09:27:38;;;;;;;20.75;13.60;;;5.80;99.90;;;;;;5148457;27;20053;-75
2022/11/18 09:30:04;;;;;;;17.65;12.82;;;5.80;99.90;;;;;;5134542;27;20038;-74
2022/11/18 09:32:32;;;;;;;18.90;12.98;;;5.80;99.90;;;;;;5134568;27;20501;-75
2022/11/18 09:34:57;;;;;;;22.70;13.32;;;5.80;99.90;;;;;;5113682;27;20039;-75
2022/11/18 09:37:23;;;;;;;25.88;13.38;;;7.10;99.90;;;;;;5130604;27;20955;-76
2022/11/18 09:39:49;;;;;;;19.67;13.35;;;5.80;99.90;;;;;;5134470;27;20047;-75
2022/11/18 09:42:50;;;;;;;18.58;12.52;;;5.80;99.90;;;;;;5152417;27;20043;-75
2022/11/18 09:45:18;;;;;;;23.77;12.68;;;5.80;99.90;;;;;;5108880;27;20138;-75
2022/11/18 09:47:44;;;;;;;18.95;11.85;;;5.80;99.90;;;;;;5133741;27;20046;-75
2022/11/18 09:50:16;;;;;;;17.52;12.20;;;5.80;99.90;;;;;;5151900;27;20516;-75
2022/11/18 09:52:47;;;;;;;16.77;11.25;;;5.70;99.90;;;;;;5134701;27;20493;-76
2022/11/18 09:55:16;;;;;;;17.92;11.05;;;5.70;99.90;;;;;;5115315;27;20039;-75
2022/11/18 09:57:51;;;;;;;15.35;11.18;;;6.00;99.90;;;;;;5123847;27;20046;-73
2022/11/18 10:00:18;;;;;;;;;;;5.70;99.90;;;;;;5130614;27;20045;-73
2022/11/18 10:03:11;;;;;;;19.42;11.27;;;5.70;99.90;;;;;;5109426;27;19997;-73
2022/11/18 10:06:10;;;;;;;16.25;11.70;;;5.70;99.90;;;;;;5149680;27;20034;-73
2022/11/18 10:09:04;;;;;;;15.27;11.23;;;6.40;99.90;;;;;;5129781;27;20055;-76
2022/11/18 10:11:44;;;;;;;17.20;12.35;;;5.50;99.90;;;;;;5143455;27;20486;-75
2022/11/18 10:14:31;;;;;;;19.05;12.35;;;6.10;99.90;;;;;;5123653;27;20173;-75
2022/11/18 10:17:13;;;;;;;18.65;12.57;;;5.70;99.90;;;;;;5114751;27;20633;-75
2022/11/18 10:19:46;;;;;;;23.48;13.13;;;5.70;99.90;;;;;;5126922;27;20043;-80
2022/11/18 10:22:40;;;;;;;31.83;12.07;;;5.60;99.90;;;;;;5114280;27;20053;-75
2022/11/18 10:25:13;;;;;;;16.75;11.90;;;5.80;99.90;;;;;;5107301;27;20039;-74
2022/11/18 10:27:41;;;;;;;17.90;11.55;;;5.80;99.90;;;;;;5128906;27;20138;-76
2022/11/18 10:30:16;;;;;;;19.30;11.60;;;5.70;99.90;;;;;;5122333;27;20466;-75
2022/11/18 10:33:00;;;;;;;14.98;10.63;;;5.70;99.90;;;;;;5107165;27;20074;-76
2022/11/18 10:35:35;;;;;;;17.23;10.20;;;5.70;99.90;;;;;;4771268;27;9999885;-76
2022/11/18 10:38:13;;;;;;;17.73;10.88;;;5.60;99.90;;;;;;5121165;27;20047;-76
2022/11/18 10:40:56;;;;;;;16.77;11.57;;;5.60;99.90;;;;;;5121213;27;20051;-76
2022/11/18 10:43:46;;;;;;;22.67;12.27;;;5.60;99.90;;;;;;5104184;28;20139;-73
2022/11/18 10:46:36;;;;;;;19.23;12.02;;;5.60;99.90;;;;;;5120894;27;20043;-73
2022/11/18 10:49:07;;;;;;;19.55;12.45;;;5.60;99.90;;;;;;5120132;27;20039;-73
2022/11/18 10:51:34;;;;;;;24.70;12.70;;;5.60;99.90;;;;;;5123987;27;20510;-76
2022/11/18 10:54:26;;;;;;;25.48;14.05;;;5.50;99.90;;;;;;5100487;28;20425;-74
2022/11/18 10:57:19;;;;;;;21.40;13.77;;;5.50;99.90;;;;;;5095752;27;20693;-74
2022/11/18 10:59:56;;;;;;;20.33;12.70;;;5.60;99.90;;;;;;5103798;27;20084;-73
2022/11/18 11:02:31;;;;;;;18.15;12.15;;;5.50;99.90;;;;;;5102722;27;20039;-73
2022/11/18 11:05:21;;;;;;;18.25;12.05;;;5.50;99.90;;;;;;5123032;27;20050;-73
2022/11/18 11:08:16;;;;;;;17.02;12.25;;;5.40;99.90;;;;;;5116099;27;20487;-73
2022/11/18 11:10:54;;;;;;;21.00;12.43;;;5.40;99.90;;;;;;5106746;28;20043;-73
2022/11/18 11:13:22;;;;;;;18.83;12.18;;;5.40;99.90;;;;;;5117113;27;20077;-73
2022/11/18 11:15:52;;;;;;;19.48;12.05;;;5.40;99.90;;;;;;5118382;27;20036;-74
2022/11/18 11:18:40;;;;;;;16.45;11.50;;;6.40;99.90;;;;;;5103508;28;20077;-74
2022/11/18 11:21:16;;;;;;;15.27;10.85;;;5.50;99.90;;;;;;5121688;28;20121;-74
2022/11/18 11:23:43;;;;;;;18.23;11.35;;;5.30;99.90;;;;;;5121646;28;20074;-74
2022/11/18 11:26:30;;;;;;;19.05;11.90;;;5.30;99.90;;;;;;5125336;27;20040;-74
2022/11/18 11:29:10;;;;;;;19.42;12.55;;;5.20;99.90;;;;;;5130405;27;20054;-74
2022/11/18 11:31:57;;;;;;;21.48;13.88;;;5.20;99.90;;;;;;5131158;27;20043;-74
2022/11/18 11:34:40;;;;;;;24.52;14.00;;;5.20;99.90;;;;;;5126969;27;20149;-74
2022/11/18 11:37:22;;;;;;;29.35;17.13;;;5.20;99.90;;;;;;5096964;28;20055;-74
2022/11/18 11:40:19;;;;;;;27.45;16.48;;;5.10;99.90;;;;;;5113329;27;20047;-74
2022/11/18 11:43:04;;;;;;;27.77;18.67;;;5.20;99.90;;;;;;5125610;27;20505;-73
2022/11/18 11:45:48;;;;;;;32.10;19.85;;;5.10;99.90;;;;;;5125321;27;20126;-73
2022/11/18 11:48:52;;;;;;;36.22;23.27;;;5.10;99.90;;;;;;5122983;27;20511;-73
2022/11/18 11:51:42;;;;;;;35.75;21.05;;;5.00;99.90;;;;;;5112063;27;20052;-73
2022/11/18 11:54:14;;;;;;;39.75;22.30;;;5.00;99.90;;;;;;5126113;27;20087;-73
2022/11/18 11:57:02;;;;;;;37.40;19.08;;;5.10;99.90;;;;;;5130376;27;20051;-74
2022/11/18 11:59:34;;;;;;;28.13;18.50;;;5.00;99.90;;;;;;5128050;27;20084;-75
2022/11/18 12:02:15;;;;;;;32.03;19.92;;;4.90;99.90;;;;;;5109710;27;20473;-74
2022/11/18 12:05:13;;;;;;;38.38;19.75;;;4.90;99.90;;;;;;5128976;27;20410;-75
2022/11/18 12:07:59;;;;;;;31.50;18.73;;;4.90;99.90;;;;;;5113310;27;20052;-74
2022/11/18 12:10:55;;;;;;;28.75;18.25;;;4.90;99.90;;;;;;5108055;27;20074;-75
2022/11/18 12:13:32;;;;;;;31.08;18.58;;;4.90;99.90;;;;;;5103880;28;20075;-74
2022/11/18 12:16:29;;;;;;;30.02;18.83;;;4.80;99.90;;;;;;5123533;27;20047;-74
2022/11/18 12:18:57;;;;;;;27.85;16.67;;;4.80;99.90;;;;;;5125010;27;20039;-74
2022/11/18 12:21:45;;;;;;;26.33;16.80;;;4.70;99.90;;;;;;5122330;27;20566;-75
2022/11/18 12:24:17;;;;;;;25.83;16.85;;;4.80;99.90;;;;;;5124915;27;20126;-75
2022/11/18 12:26:45;;;;;;;26.48;17.38;;;4.70;99.90;;;;;;5128518;27;20439;-76
2022/11/18 12:29:19;;;;;;;27.00;15.80;;;4.70;99.90;;;;;;5126363;27;20435;-74
2022/11/18 12:32:00;;;;;;;25.00;15.88;;;4.60;99.90;;;;;;5130060;27;20744;-75
2022/11/18 12:34:40;;;;;;;25.88;17.00;;;4.60;99.90;;;;;;5124088;27;20111;-74
2022/11/18 12:37:24;;;;;;;27.20;17.33;;;4.50;99.90;;;;;;5139704;27;20080;-73
2022/11/18 12:39:58;;;;;;;22.98;15.20;;;6.10;99.90;;;;;;5144949;27;20039;-76
2022/11/18 12:45:40;;;;;;;24.35;15.30;;;4.50;99.90;;;;;;5143897;27;20046;-75
2022/11/18 12:48:27;;;;;;;27.05;15.57;;;4.60;99.90;;;;;;5147111;27;20073;-73
2022/11/18 12:50:55;;;;;;;28.30;16.67;;;4.60;99.90;;;;;;5124773;27;20078;-75
2022/11/18 12:53:42;;;;;;;26.20;16.80;;;4.60;99.90;;;;;;5151506;27;20394;-75
2022/11/18 12:56:21;;;;;;;26.33;15.77;;;4.60;99.90;;;;;;5127226;27;20081;-74
2022/11/18 12:58:52;;;;;;;26.45;17.25;;;4.60;99.90;;;;;;5128214;27;20412;-75
2022/11/18 13:01:24;;;;;;;29.80;17.60;;;4.60;99.90;;;;;;5145209;27;20034;-74
2022/11/18 13:03:50;;;;;;;24.13;17.83;;;4.60;99.90;;;;;;5108614;27;20403;-74
2022/11/18 13:06:27;;;;;;;27.13;16.77;;;4.60;99.90;;;;;;5126460;27;20090;-74
2022/11/18 13:09:01;;;;;;;33.65;18.33;;;4.60;99.90;;;;;;5146404;27;20027;-74
2022/11/18 13:11:44;;;;;;;30.33;16.98;;;4.60;99.90;;;;;;5128686;27;20038;-74
2022/11/18 13:20:34;;;;;;;28.58;17.90;;;4.50;99.90;;;;;;5128641;27;20150;-73